Lanai City, HI

11:18 AM HST on August 27, 2014 (GMT -1000)
Lanai City | Change Station
CLOSE
Current Station
Airport
Location: Lanai City,
Elevation: 1309 ft
Nearby Weather Stations

Elev 1309 ft 20.79 °N, 156.95 °W | Updated 22 minutes ago

Clear
Clear
83 °F
Feels Like 85 °F
N
17
Wind Variable Wind from NE
Gusts 25 mph

Today
High -- | Low -- °F
--% Chance of Precip.
Yesterday
High -- | Low -- °F
Precip. -- in
6:10 AM 6:47 PM
Waxing Crescent, 5% visible
Pressure 29.91 in
Visibility 10.0 miles
Clouds Clear
Heat Index 85 °F
Dew Point 65 °F
Humidity 54%
Rainfall 0.00 in
Snow Depth Not available.
UV 11 out of 12
Pollen Not available.
Air Quality Not available.
Flu Activity Not available.
METAR PHNY 272056Z AUTO 04015G22KT 10SM CLR 28/18 A2998 RMK AO2 TSNO 5//// 6//// T02830183 SLP127 $

More Conditions Fewer Conditions

Pressure 29.91 in
Visibility 10.0 miles
Clouds Clear
Heat Index 85 °F
Dew Point 65 °F
Humidity 54%
Rainfall 0.00 in
Snow Depth Not available.
UV 11 out of 12
Pollen Not available.
Air Quality Not available.
Flu Activity Not available.
METAR PHNY 272056Z AUTO 04015G22KT 10SM CLR 28/18 A2998 RMK AO2 TSNO 5//// 6//// T02830183 SLP127 $

More Conditions Fewer Conditions

10-Day Weather Forecast

Almanac

Astronomy

Aug. 27, 2014 Rise Set
Actual Time 6:10 AM HST 6:47 PM HST
Civil Twilight 5:47 AM HST 7:10 PM HST
Nautical Twilight 5:21 AM HST 7:36 PM HST
Astronomical Twilight 4:54 AM HST 8:03 PM HST
Moon 7:55 AM HST 8:10 PM HST
Length of Visible Light 13h 22m
Length of Day
12h 37m
Tomorrow will be 1m 8s shorter.
Waxing Crescent, 5% of the Moon is Illuminated
Today
Waxing Crescent
Sep 2
First Quarter
Sep 8
Full
Sep 15
Last Quarter
Sep 24
New

Today's Extremes

State Highs State Lows

Community

WunderPhotos

Upload Photos

1,747,789 photos uploaded!

Nearby

Snow Depth

Station Depth Elevation
No new snow has been reported.

Earthquake Activity

City Distance Mag. Time & Date
No recent earthquake activity has been reported nearby.
Minimum magnitude displayed is 2.5.

Coastal Water Temperatures

Place Temperature
No Stations Reporting

Nearby Weather Stations